sensor_id;sensor_type;location;lat;lon;timestamp;temperature;humidity
38784;DHT22;24531;45.502;12.238;2022-07-23T00:01:07;31.20;61.50
38784;DHT22;24531;45.502;12.238;2022-07-23T00:03:32;31.20;61.70
38784;DHT22;24531;45.502;12.238;2022-07-23T00:05:58;31.10;61.90
38784;DHT22;24531;45.502;12.238;2022-07-23T00:08:24;31.10;62.20
38784;DHT22;24531;45.502;12.238;2022-07-23T00:10:49;31.00;62.30
38784;DHT22;24531;45.502;12.238;2022-07-23T00:13:15;31.10;62.60
38784;DHT22;24531;45.502;12.238;2022-07-23T00:15:41;31.00;62.80
38784;DHT22;24531;45.502;12.238;2022-07-23T00:18:06;31.00;63.00
38784;DHT22;24531;45.502;12.238;2022-07-23T00:23:50;31.00;63.20
38784;DHT22;24531;45.502;12.238;2022-07-23T00:26:27;30.90;64.50
38784;DHT22;24531;45.502;12.238;2022-07-23T00:36:09;30.50;64.70
38784;DHT22;24531;45.502;12.238;2022-07-23T00:38:45;30.70;65.40
38784;DHT22;24531;45.502;12.238;2022-07-23T00:41:33;30.70;66.00
38784;DHT22;24531;45.502;12.238;2022-07-23T00:44:24;30.40;66.30
38784;DHT22;24531;45.502;12.238;2022-07-23T00:53:49;30.70;67.10
38784;DHT22;24531;45.502;12.238;2022-07-23T00:59:41;30.70;67.90
38784;DHT22;24531;45.502;12.238;2022-07-23T01:05:47;30.70;67.90
38784;DHT22;24531;45.502;12.238;2022-07-23T01:08:20;30.80;68.10
38784;DHT22;24531;45.502;12.238;2022-07-23T01:11:12;30.70;69.30
38784;DHT22;24531;45.502;12.238;2022-07-23T01:13:42;30.80;68.40
38784;DHT22;24531;45.502;12.238;2022-07-23T01:16:12;30.70;67.60
38784;DHT22;24531;45.502;12.238;2022-07-23T01:25:15;30.60;68.50
38784;DHT22;24531;45.502;12.238;2022-07-23T01:34:47;30.70;69.00
38784;DHT22;24531;45.502;12.238;2022-07-23T01:41:00;30.50;68.70
38784;DHT22;24531;45.502;12.238;2022-07-23T01:56:47;30.20;70.00
38784;DHT22;24531;45.502;12.238;2022-07-23T01:59:40;30.00;71.10
38784;DHT22;24531;45.502;12.238;2022-07-23T02:05:27;29.80;70.50
38784;DHT22;24531;45.502;12.238;2022-07-23T02:08:06;29.90;71.10
38784;DHT22;24531;45.502;12.238;2022-07-23T02:13:44;29.30;70.60
38784;DHT22;24531;45.502;12.238;2022-07-23T02:16:12;30.00;71.10
38784;DHT22;24531;45.502;12.238;2022-07-23T02:18:38;29.90;71.20
38784;DHT22;24531;45.502;12.238;2022-07-23T02:21:25;29.90;70.90
38784;DHT22;24531;45.502;12.238;2022-07-23T02:23:51;29.50;69.90
38784;DHT22;24531;45.502;12.238;2022-07-23T02:26:17;29.90;70.70
38784;DHT22;24531;45.502;12.238;2022-07-23T02:39:35;29.50;70.00
38784;DHT22;24531;45.502;12.238;2022-07-23T02:42:01;29.50;70.20
38784;DHT22;24531;45.502;12.238;2022-07-23T02:44:52;29.50;70.80
38784;DHT22;24531;45.502;12.238;2022-07-23T02:51:07;29.40;69.60
38784;DHT22;24531;45.502;12.238;2022-07-23T02:53:33;29.50;69.60
38784;DHT22;24531;45.502;12.238;2022-07-23T02:55:59;29.40;70.20
38784;DHT22;24531;45.502;12.238;2022-07-23T02:58:34;29.40;69.40
38784;DHT22;24531;45.502;12.238;2022-07-23T03:00:59;29.30;69.50
38784;DHT22;24531;45.502;12.238;2022-07-23T03:03:56;29.30;69.30
38784;DHT22;24531;45.502;12.238;2022-07-23T03:06:28;29.30;69.40
38784;DHT22;24531;45.502;12.238;2022-07-23T03:08:56;29.20;69.90
38784;DHT22;24531;45.502;12.238;2022-07-23T03:11:34;29.20;69.70
38784;DHT22;24531;45.502;12.238;2022-07-23T03:14:21;29.20;69.70
38784;DHT22;24531;45.502;12.238;2022-07-23T03:19:50;29.20;69.40
38784;DHT22;24531;45.502;12.238;2022-07-23T03:22:45;29.10;70.00
38784;DHT22;24531;45.502;12.238;2022-07-23T03:25:23;28.80;69.10
38784;DHT22;24531;45.502;12.238;2022-07-23T03:27:48;29.10;69.40
38784;DHT22;24531;45.502;12.238;2022-07-23T03:30:38;29.00;70.10
38784;DHT22;24531;45.502;12.238;2022-07-23T03:33:19;28.70;69.30
38784;DHT22;24531;45.502;12.238;2022-07-23T03:54:58;28.80;68.70
38784;DHT22;24531;45.502;12.238;2022-07-23T04:00:46;28.80;68.80
38784;DHT22;24531;45.502;12.238;2022-07-23T04:06:42;28.30;68.90
38784;DHT22;24531;45.502;12.238;2022-07-23T04:09:22;28.60;69.30
38784;DHT22;24531;45.502;12.238;2022-07-23T04:11:57;28.60;69.30
38784;DHT22;24531;45.502;12.238;2022-07-23T04:14:23;28.50;68.60
38784;DHT22;24531;45.502;12.238;2022-07-23T04:16:57;28.60;68.70
38784;DHT22;24531;45.502;12.238;2022-07-23T04:19:36;28.60;69.00
38784;DHT22;24531;45.502;12.238;2022-07-23T04:26:00;27.80;67.50
38784;DHT22;24531;45.502;12.238;2022-07-23T04:40:41;28.80;67.70
38784;DHT22;24531;45.502;12.238;2022-07-23T04:43:07;28.60;68.50
38784;DHT22;24531;45.502;12.238;2022-07-23T04:49:11;28.80;68.30
38784;DHT22;24531;45.502;12.238;2022-07-23T04:52:08;27.30;67.70
38784;DHT22;24531;45.502;12.238;2022-07-23T05:11:12;29.00;69.10
38784;DHT22;24531;45.502;12.238;2022-07-23T05:17:00;27.90;68.60
38784;DHT22;24531;45.502;12.238;2022-07-23T05:22:48;29.10;70.20
38784;DHT22;24531;45.502;12.238;2022-07-23T05:28:46;29.20;70.40
38784;DHT22;24531;45.502;12.238;2022-07-23T05:31:23;29.10;71.10
38784;DHT22;24531;45.502;12.238;2022-07-23T05:34:08;29.20;71.60
38784;DHT22;24531;45.502;12.238;2022-07-23T05:36:33;29.20;71.40
38784;DHT22;24531;45.502;12.238;2022-07-23T05:45:37;29.40;71.20
38784;DHT22;24531;45.502;12.238;2022-07-23T05:48:05;29.40;72.10
38784;DHT22;24531;45.502;12.238;2022-07-23T05:50:50;29.50;71.80
38784;DHT22;24531;45.502;12.238;2022-07-23T05:59:08;29.80;71.60
38784;DHT22;24531;45.502;12.238;2022-07-23T06:20:27;29.70;71.80
38784;DHT22;24531;45.502;12.238;2022-07-23T06:33:17;30.30;72.60
38784;DHT22;24531;45.502;12.238;2022-07-23T06:35:58;30.30;72.70
38784;DHT22;24531;45.502;12.238;2022-07-23T06:55:52;31.90;72.10
38784;DHT22;24531;45.502;12.238;2022-07-23T06:58:18;32.40;73.20
38784;DHT22;24531;45.502;12.238;2022-07-23T07:01:06;32.60;73.00
38784;DHT22;24531;45.502;12.238;2022-07-23T07:03:34;32.80;73.30
38784;DHT22;24531;45.502;12.238;2022-07-23T07:13:02;33.10;71.60
38784;DHT22;24531;45.502;12.238;2022-07-23T07:29:07;34.50;67.80
38784;DHT22;24531;45.502;12.238;2022-07-23T07:31:32;35.10;67.90
38784;DHT22;24531;45.502;12.238;2022-07-23T07:34:07;35.30;67.40
38784;DHT22;24531;45.502;12.238;2022-07-23T07:36:45;35.40;66.50
38784;DHT22;24531;45.502;12.238;2022-07-23T07:39:13;35.50;65.50
38784;DHT22;24531;45.502;12.238;2022-07-23T07:45:07;35.60;63.20
38784;DHT22;24531;45.502;12.238;2022-07-23T07:47:33;35.60;63.90
38784;DHT22;24531;45.502;12.238;2022-07-23T07:49:59;35.60;63.60
38784;DHT22;24531;45.502;12.238;2022-07-23T07:52:40;35.70;62.70
38784;DHT22;24531;45.502;12.238;2022-07-23T07:55:25;35.70;61.90
38784;DHT22;24531;45.502;12.238;2022-07-23T07:58:32;35.80;60.50
38784;DHT22;24531;45.502;12.238;2022-07-23T08:06:52;36.20;59.20
38784;DHT22;24531;45.502;12.238;2022-07-23T08:09:33;36.10;58.10
38784;DHT22;24531;45.502;12.238;2022-07-23T08:11:58;36.20;57.50
38784;DHT22;24531;45.502;12.238;2022-07-23T08:14:27;36.20;56.70
38784;DHT22;24531;45.502;12.238;2022-07-23T08:16:57;36.20;56.50
38784;DHT22;24531;45.502;12.238;2022-07-23T08:19:37;36.30;56.40
38784;DHT22;24531;45.502;12.238;2022-07-23T08:25:34;36.40;56.40
38784;DHT22;24531;45.502;12.238;2022-07-23T08:28:15;36.80;55.50
38784;DHT22;24531;45.502;12.238;2022-07-23T08:30:45;37.10;55.20
38784;DHT22;24531;45.502;12.238;2022-07-23T08:33:15;38.60;54.50
38784;DHT22;24531;45.502;12.238;2022-07-23T08:36:02;37.40;53.60
38784;DHT22;24531;45.502;12.238;2022-07-23T08:38:28;37.60;52.40
38784;DHT22;24531;45.502;12.238;2022-07-23T08:41:00;37.90;51.50
38784;DHT22;24531;45.502;12.238;2022-07-23T08:43:29;38.20;50.40
38784;DHT22;24531;45.502;12.238;2022-07-23T08:46:31;38.60;49.20
38784;DHT22;24531;45.502;12.238;2022-07-23T08:48:57;39.00;48.10
38784;DHT22;24531;45.502;12.238;2022-07-23T08:51:37;39.50;46.90
38784;DHT22;24531;45.502;12.238;2022-07-23T08:54:03;39.60;46.50
38784;DHT22;24531;45.502;12.238;2022-07-23T08:56:29;40.50;45.80
38784;DHT22;24531;45.502;12.238;2022-07-23T08:58:55;41.00;45.30
38784;DHT22;24531;45.502;12.238;2022-07-23T09:01:21;41.40;44.10
38784;DHT22;24531;45.502;12.238;2022-07-23T09:03:46;41.90;44.40
38784;DHT22;24531;45.502;12.238;2022-07-23T09:06:18;42.50;42.90
38784;DHT22;24531;45.502;12.238;2022-07-23T09:08:44;42.80;42.30
38784;DHT22;24531;45.502;12.238;2022-07-23T09:11:15;43.00;42.50
38784;DHT22;24531;45.502;12.238;2022-07-23T09:13:50;43.20;42.20
38784;DHT22;24531;45.502;12.238;2022-07-23T09:19:16;43.70;42.20
38784;DHT22;24531;45.502;12.238;2022-07-23T09:21:52;44.10;41.00
38784;DHT22;24531;45.502;12.238;2022-07-23T09:24:18;44.40;40.60
38784;DHT22;24531;45.502;12.238;2022-07-23T09:26:47;44.30;40.10
38784;DHT22;24531;45.502;12.238;2022-07-23T09:29:27;45.10;40.20
38784;DHT22;24531;45.502;12.238;2022-07-23T09:32:00;45.40;40.00
38784;DHT22;24531;45.502;12.238;2022-07-23T09:34:34;45.60;38.70
38784;DHT22;24531;45.502;12.238;2022-07-23T09:39:40;45.70;38.20
38784;DHT22;24531;45.502;12.238;2022-07-23T09:42:25;45.80;37.10
38784;DHT22;24531;45.502;12.238;2022-07-23T09:44:54;45.80;37.70
38784;DHT22;24531;45.502;12.238;2022-07-23T09:47:22;46.00;37.70
38784;DHT22;24531;45.502;12.238;2022-07-23T09:53:04;46.10;35.80
38784;DHT22;24531;45.502;12.238;2022-07-23T09:55:34;46.30;36.30
38784;DHT22;24531;45.502;12.238;2022-07-23T09:58:10;46.50;35.60
38784;DHT22;24531;45.502;12.238;2022-07-23T10:00:52;46.50;35.00
38784;DHT22;24531;45.502;12.238;2022-07-23T10:03:19;46.50;35.20
38784;DHT22;24531;45.502;12.238;2022-07-23T10:05:46;46.50;34.60
38784;DHT22;24531;45.502;12.238;2022-07-23T10:08:12;46.50;34.10
38784;DHT22;24531;45.502;12.238;2022-07-23T10:10:41;45.90;34.00
38784;DHT22;24531;45.502;12.238;2022-07-23T10:13:08;45.30;34.40
38784;DHT22;24531;45.502;12.238;2022-07-23T10:16:01;44.60;35.40
38784;DHT22;24531;45.502;12.238;2022-07-23T10:18:26;43.90;35.80
38784;DHT22;24531;45.502;12.238;2022-07-23T10:20:55;43.40;36.00
38784;DHT22;24531;45.502;12.238;2022-07-23T10:23:35;43.00;35.80
38784;DHT22;24531;45.502;12.238;2022-07-23T10:41:52;40.90;35.70
38784;DHT22;24531;45.502;12.238;2022-07-23T11:00:53;40.70;34.30
38784;DHT22;24531;45.502;12.238;2022-07-23T11:04:11;40.70;34.40
38784;DHT22;24531;45.502;12.238;2022-07-23T11:09:39;40.50;35.60
38784;DHT22;24531;45.502;12.238;2022-07-23T11:25:14;40.20;37.80
38784;DHT22;24531;45.502;12.238;2022-07-23T11:28:26;40.10;39.50
38784;DHT22;24531;45.502;12.238;2022-07-23T11:31:17;40.10;39.90
38784;DHT22;24531;45.502;12.238;2022-07-23T11:34:27;40.20;40.10
38784;DHT22;24531;45.502;12.238;2022-07-23T11:37:09;40.10;41.20
38784;DHT22;24531;45.502;12.238;2022-07-23T11:43:10;39.50;40.80
38784;DHT22;24531;45.502;12.238;2022-07-23T11:45:41;39.90;41.40
38784;DHT22;24531;45.502;12.238;2022-07-23T11:48:09;39.90;41.60
38784;DHT22;24531;45.502;12.238;2022-07-23T11:54:09;39.90;41.30
38784;DHT22;24531;45.502;12.238;2022-07-23T11:56:38;39.90;40.70
38784;DHT22;24531;45.502;12.238;2022-07-23T12:12:24;39.80;41.80
38784;DHT22;24531;45.502;12.238;2022-07-23T12:15:15;38.80;41.60
38784;DHT22;24531;45.502;12.238;2022-07-23T12:18:01;39.60;42.50
38784;DHT22;24531;45.502;12.238;2022-07-23T12:30:39;38.30;43.10
38784;DHT22;24531;45.502;12.238;2022-07-23T12:33:14;38.80;44.00
38784;DHT22;24531;45.502;12.238;2022-07-23T12:42:11;38.50;44.70
38784;DHT22;24531;45.502;12.238;2022-07-23T12:58:19;38.60;44.90
38784;DHT22;24531;45.502;12.238;2022-07-23T13:04:13;38.70;44.00
38784;DHT22;24531;45.502;12.238;2022-07-23T13:13:20;38.90;43.80
38784;DHT22;24531;45.502;12.238;2022-07-23T13:16:04;38.80;43.50
38784;DHT22;24531;45.502;12.238;2022-07-23T13:18:48;38.80;42.80
38784;DHT22;24531;45.502;12.238;2022-07-23T13:21:14;38.80;43.10
38784;DHT22;24531;45.502;12.238;2022-07-23T13:23:40;39.00;41.70
38784;DHT22;24531;45.502;12.238;2022-07-23T13:29:55;39.10;41.80
38784;DHT22;24531;45.502;12.238;2022-07-23T13:32:29;39.10;41.10
38784;DHT22;24531;45.502;12.238;2022-07-23T13:35:04;39.10;42.40
38784;DHT22;24531;45.502;12.238;2022-07-23T13:41:24;39.10;41.70
38784;DHT22;24531;45.502;12.238;2022-07-23T13:44:02;39.00;41.70
38784;DHT22;24531;45.502;12.238;2022-07-23T13:46:27;39.10;41.40
38784;DHT22;24531;45.502;12.238;2022-07-23T13:48:53;39.10;41.50
38784;DHT22;24531;45.502;12.238;2022-07-23T13:51:19;39.10;39.60
38784;DHT22;24531;45.502;12.238;2022-07-23T13:53:45;39.10;38.50
38784;DHT22;24531;45.502;12.238;2022-07-23T13:56:11;39.10;39.20
38784;DHT22;24531;45.502;12.238;2022-07-23T13:58:37;39.20;39.20
38784;DHT22;24531;45.502;12.238;2022-07-23T14:01:03;39.20;38.60
38784;DHT22;24531;45.502;12.238;2022-07-23T14:03:29;39.20;38.20
38784;DHT22;24531;45.502;12.238;2022-07-23T14:05:57;39.10;38.40
38784;DHT22;24531;45.502;12.238;2022-07-23T14:08:30;39.20;38.60
38784;DHT22;24531;45.502;12.238;2022-07-23T14:10:58;39.20;38.30
38784;DHT22;24531;45.502;12.238;2022-07-23T14:16:23;39.20;38.70
38784;DHT22;24531;45.502;12.238;2022-07-23T14:18:54;39.10;37.70
38784;DHT22;24531;45.502;12.238;2022-07-23T14:21:23;37.80;35.90
38784;DHT22;24531;45.502;12.238;2022-07-23T14:23:55;39.10;38.10
38784;DHT22;24531;45.502;12.238;2022-07-23T14:26:36;39.10;39.00
38784;DHT22;24531;45.502;12.238;2022-07-23T14:29:13;39.20;38.60
38784;DHT22;24531;45.502;12.238;2022-07-23T14:31:42;39.60;38.60
38784;DHT22;24531;45.502;12.238;2022-07-23T14:34:46;39.00;38.80
38784;DHT22;24531;45.502;12.238;2022-07-23T14:43:16;38.80;40.10
38784;DHT22;24531;45.502;12.238;2022-07-23T14:46:02;39.00;40.10
38784;DHT22;24531;45.502;12.238;2022-07-23T14:48:33;38.90;40.20
38784;DHT22;24531;45.502;12.238;2022-07-23T14:50:59;38.90;39.90
38784;DHT22;24531;45.502;12.238;2022-07-23T14:53:25;38.90;39.60
38784;DHT22;24531;45.502;12.238;2022-07-23T14:55:50;39.00;39.90
38784;DHT22;24531;45.502;12.238;2022-07-23T14:58:19;38.90;40.20
38784;DHT22;24531;45.502;12.238;2022-07-23T15:00:44;38.80;40.70
38784;DHT22;24531;45.502;12.238;2022-07-23T15:03:10;38.90;39.80
38784;DHT22;24531;45.502;12.238;2022-07-23T15:05:36;38.80;39.00
38784;DHT22;24531;45.502;12.238;2022-07-23T15:08:01;38.70;39.30
38784;DHT22;24531;45.502;12.238;2022-07-23T15:10:27;38.70;38.00
38784;DHT22;24531;45.502;12.238;2022-07-23T15:12:53;38.70;37.00
38784;DHT22;24531;45.502;12.238;2022-07-23T15:15:21;38.60;36.50
38784;DHT22;24531;45.502;12.238;2022-07-23T15:17:46;38.50;35.70
38784;DHT22;24531;45.502;12.238;2022-07-23T15:20:15;38.50;35.80
38784;DHT22;24531;45.502;12.238;2022-07-23T15:23:04;38.40;37.00
38784;DHT22;24531;45.502;12.238;2022-07-23T15:25:32;38.60;37.20
38784;DHT22;24531;45.502;12.238;2022-07-23T15:27:58;38.50;38.30
38784;DHT22;24531;45.502;12.238;2022-07-23T15:30:25;38.40;38.00
38784;DHT22;24531;45.502;12.238;2022-07-23T15:32:51;38.20;36.30
38784;DHT22;24531;45.502;12.238;2022-07-23T15:35:17;38.20;37.40
38784;DHT22;24531;45.502;12.238;2022-07-23T15:37:43;38.10;36.10
38784;DHT22;24531;45.502;12.238;2022-07-23T15:40:09;38.10;37.50
38784;DHT22;24531;45.502;12.238;2022-07-23T15:42:35;38.00;37.00
38784;DHT22;24531;45.502;12.238;2022-07-23T15:45:04;38.00;37.40
38784;DHT22;24531;45.502;12.238;2022-07-23T15:47:30;37.90;38.40
38784;DHT22;24531;45.502;12.238;2022-07-23T15:53:15;37.30;38.60
38784;DHT22;24531;45.502;12.238;2022-07-23T15:55:41;37.70;38.60
38784;DHT22;24531;45.502;12.238;2022-07-23T15:58:10;37.60;39.10
38784;DHT22;24531;45.502;12.238;2022-07-23T16:00:41;37.60;40.30
38784;DHT22;24531;45.502;12.238;2022-07-23T16:03:06;37.50;41.10
38784;DHT22;24531;45.502;12.238;2022-07-23T16:05:32;37.40;41.90
38784;DHT22;24531;45.502;12.238;2022-07-23T16:08:13;37.30;42.60
38784;DHT22;24531;45.502;12.238;2022-07-23T16:10:39;37.20;43.20
38784;DHT22;24531;45.502;12.238;2022-07-23T16:13:05;37.20;43.20
38784;DHT22;24531;45.502;12.238;2022-07-23T16:15:42;36.80;42.90
38784;DHT22;24531;45.502;12.238;2022-07-23T16:18:08;37.00;42.80
38784;DHT22;24531;45.502;12.238;2022-07-23T16:20:35;36.90;43.40
38784;DHT22;24531;45.502;12.238;2022-07-23T16:23:04;36.90;44.10
38784;DHT22;24531;45.502;12.238;2022-07-23T16:25:34;36.70;43.90
38784;DHT22;24531;45.502;12.238;2022-07-23T16:28:07;36.70;44.30
38784;DHT22;24531;45.502;12.238;2022-07-23T16:30:32;36.60;45.40
38784;DHT22;24531;45.502;12.238;2022-07-23T16:32:59;36.50;45.90
38784;DHT22;24531;45.502;12.238;2022-07-23T16:35:25;36.40;46.30
38784;DHT22;24531;45.502;12.238;2022-07-23T16:37:51;36.40;46.40
38784;DHT22;24531;45.502;12.238;2022-07-23T16:40:17;36.30;44.40
38784;DHT22;24531;45.502;12.238;2022-07-23T16:42:43;36.30;44.10
38784;DHT22;24531;45.502;12.238;2022-07-23T16:45:09;36.20;44.90
38784;DHT22;24531;45.502;12.238;2022-07-23T16:47:35;36.20;45.90
38784;DHT22;24531;45.502;12.238;2022-07-23T16:50:19;36.20;46.80
38784;DHT22;24531;45.502;12.238;2022-07-23T16:52:51;36.20;47.00
38784;DHT22;24531;45.502;12.238;2022-07-23T16:55:33;36.10;48.10
38784;DHT22;24531;45.502;12.238;2022-07-23T16:58:02;35.60;47.00
38784;DHT22;24531;45.502;12.238;2022-07-23T17:03:23;36.00;49.00
38784;DHT22;24531;45.502;12.238;2022-07-23T17:05:50;36.00;49.10
38784;DHT22;24531;45.502;12.238;2022-07-23T17:08:16;36.00;49.10
38784;DHT22;24531;45.502;12.238;2022-07-23T17:17:19;35.70;51.30
38784;DHT22;24531;45.502;12.238;2022-07-23T17:23:28;35.30;52.00
38784;DHT22;24531;45.502;12.238;2022-07-23T17:26:13;35.60;52.30
38784;DHT22;24531;45.502;12.238;2022-07-23T17:35:16;35.30;54.30
38784;DHT22;24531;45.502;12.238;2022-07-23T17:37:48;35.20;55.20
38784;DHT22;24531;45.502;12.238;2022-07-23T17:40:14;35.20;54.90
38784;DHT22;24531;45.502;12.238;2022-07-23T17:46:17;35.10;57.00
38784;DHT22;24531;45.502;12.238;2022-07-23T17:48:43;35.10;58.10
38784;DHT22;24531;45.502;12.238;2022-07-23T17:51:18;34.90;58.80
38784;DHT22;24531;45.502;12.238;2022-07-23T17:53:44;34.90;58.50
38784;DHT22;24531;45.502;12.238;2022-07-23T17:59:33;34.50;58.00
38784;DHT22;24531;45.502;12.238;2022-07-23T18:02:01;34.90;57.50
38784;DHT22;24531;45.502;12.238;2022-07-23T18:04:42;34.70;56.80
38784;DHT22;24531;45.502;12.238;2022-07-23T18:07:08;34.60;58.10
38784;DHT22;24531;45.502;12.238;2022-07-23T18:13:08;34.30;59.30
38784;DHT22;24531;45.502;12.238;2022-07-23T18:15:34;34.60;61.60
38784;DHT22;24531;45.502;12.238;2022-07-23T18:24:18;34.40;61.60
38784;DHT22;24531;45.502;12.238;2022-07-23T18:26:43;34.30;62.60
38784;DHT22;24531;45.502;12.238;2022-07-23T18:29:09;34.40;63.10
38784;DHT22;24531;45.502;12.238;2022-07-23T18:31:35;34.20;63.80
38784;DHT22;24531;45.502;12.238;2022-07-23T18:36:51;34.30;64.60
38784;DHT22;24531;45.502;12.238;2022-07-23T18:39:16;34.30;65.90
38784;DHT22;24531;45.502;12.238;2022-07-23T18:41:58;34.30;66.10
38784;DHT22;24531;45.502;12.238;2022-07-23T18:44:27;34.20;65.40
38784;DHT22;24531;45.502;12.238;2022-07-23T18:46:52;34.00;65.90
38784;DHT22;24531;45.502;12.238;2022-07-23T18:49:18;34.00;65.80
38784;DHT22;24531;45.502;12.238;2022-07-23T18:51:44;34.00;65.90
38784;DHT22;24531;45.502;12.238;2022-07-23T18:54:09;34.00;66.80
38784;DHT22;24531;45.502;12.238;2022-07-23T18:56:40;33.90;67.20
38784;DHT22;24531;45.502;12.238;2022-07-23T18:59:06;33.80;65.90
38784;DHT22;24531;45.502;12.238;2022-07-23T19:01:35;33.80;64.90
38784;DHT22;24531;45.502;12.238;2022-07-23T19:04:00;33.90;62.40
38784;DHT22;24531;45.502;12.238;2022-07-23T19:06:26;33.80;62.10
38784;DHT22;24531;45.502;12.238;2022-07-23T19:08:53;33.80;62.00
38784;DHT22;24531;45.502;12.238;2022-07-23T19:11:42;33.80;60.40
38784;DHT22;24531;45.502;12.238;2022-07-23T19:14:26;33.80;60.20
38784;DHT22;24531;45.502;12.238;2022-07-23T19:16:55;33.80;59.80
38784;DHT22;24531;45.502;12.238;2022-07-23T19:19:20;33.90;59.70
38784;DHT22;24531;45.502;12.238;2022-07-23T19:22:04;33.90;59.80
38784;DHT22;24531;45.502;12.238;2022-07-23T19:32:11;33.80;60.50
38784;DHT22;24531;45.502;12.238;2022-07-23T19:34:23;33.90;61.90
38784;DHT22;24531;45.502;12.238;2022-07-23T19:50:51;33.10;63.70
38784;DHT22;24531;45.502;12.238;2022-07-23T19:56:42;33.00;66.10
38784;DHT22;24531;45.502;12.238;2022-07-23T19:59:08;33.60;67.10
38784;DHT22;24531;45.502;12.238;2022-07-23T20:01:56;33.60;67.60
38784;DHT22;24531;45.502;12.238;2022-07-23T20:04:24;33.70;68.40
38784;DHT22;24531;45.502;12.238;2022-07-23T20:10:11;33.50;68.80
38784;DHT22;24531;45.502;12.238;2022-07-23T20:15:45;33.50;69.20
38784;DHT22;24531;45.502;12.238;2022-07-23T20:18:38;33.60;70.10
38784;DHT22;24531;45.502;12.238;2022-07-23T20:33:56;33.50;70.40
38784;DHT22;24531;45.502;12.238;2022-07-23T20:45:59;33.40;69.50
38784;DHT22;24531;45.502;12.238;2022-07-23T20:51:53;34.20;70.30
38784;DHT22;24531;45.502;12.238;2022-07-23T20:54:21;33.60;69.60
38784;DHT22;24531;45.502;12.238;2022-07-23T20:57:11;33.30;69.30
38784;DHT22;24531;45.502;12.238;2022-07-23T20:59:56;33.40;69.50
38784;DHT22;24531;45.502;12.238;2022-07-23T21:15:43;32.90;71.30
38784;DHT22;24531;45.502;12.238;2022-07-23T21:18:36;32.80;72.20
38784;DHT22;24531;45.502;12.238;2022-07-23T21:32:31;32.40;73.40
38784;DHT22;24531;45.502;12.238;2022-07-23T21:35:12;32.50;73.40
38784;DHT22;24531;45.502;12.238;2022-07-23T21:40:46;32.30;74.10
38784;DHT22;24531;45.502;12.238;2022-07-23T21:46:59;32.30;74.20
38784;DHT22;24531;45.502;12.238;2022-07-23T22:09:06;31.90;76.20
38784;DHT22;24531;45.502;12.238;2022-07-23T22:12:04;31.90;76.80
38784;DHT22;24531;45.502;12.238;2022-07-23T22:15:03;31.80;77.50
38784;DHT22;24531;45.502;12.238;2022-07-23T22:24:10;32.20;77.60
38784;DHT22;24531;45.502;12.238;2022-07-23T22:26:52;31.80;77.40
38784;DHT22;24531;45.502;12.238;2022-07-23T22:29:17;31.70;77.80
38784;DHT22;24531;45.502;12.238;2022-07-23T22:47:45;31.50;76.10
38784;DHT22;24531;45.502;12.238;2022-07-23T23:02:14;31.40;70.80
38784;DHT22;24531;45.502;12.238;2022-07-23T23:04:47;31.50;69.00
38784;DHT22;24531;45.502;12.238;2022-07-23T23:11:15;31.50;65.20
38784;DHT22;24531;45.502;12.238;2022-07-23T23:13:46;31.40;63.20
38784;DHT22;24531;45.502;12.238;2022-07-23T23:16:12;31.30;61.80
38784;DHT22;24531;45.502;12.238;2022-07-23T23:24:59;31.00;59.90
38784;DHT22;24531;45.502;12.238;2022-07-23T23:30:45;31.30;58.10
38784;DHT22;24531;45.502;12.238;2022-07-23T23:33:29;31.20;58.30
38784;DHT22;24531;45.502;12.238;2022-07-23T23:36:05;31.20;58.20
38784;DHT22;24531;45.502;12.238;2022-07-23T23:38:31;31.20;58.00
